createdAt,value
2022-10-10T00:02:09.251Z,8.50
2022-10-10T00:04:38.701Z,8.40
2022-10-10T00:07:06.885Z,8.30
2022-10-10T00:09:34.964Z,8.30
2022-10-10T00:12:02.987Z,8.20
2022-10-10T00:14:32.596Z,8.00
2022-10-10T00:17:00.720Z,8.00
2022-10-10T00:19:28.793Z,8.00
2022-10-10T00:21:58.578Z,8.00
2022-10-10T00:24:26.569Z,7.90
2022-10-10T00:26:54.847Z,7.90
2022-10-10T00:29:22.832Z,8.00
2022-10-10T00:31:50.865Z,8.00
2022-10-10T00:34:19.275Z,7.90
2022-10-10T00:36:47.270Z,7.70
2022-10-10T00:39:16.663Z,7.50
2022-10-10T00:41:44.636Z,7.50
2022-10-10T00:44:14.759Z,7.50
2022-10-10T00:46:43.717Z,7.60
2022-10-10T00:49:15.803Z,7.40
2022-10-10T00:51:47.311Z,7.40
2022-10-10T00:54:19.355Z,7.50
2022-10-10T00:56:55.943Z,7.40
2022-10-10T00:59:24.849Z,7.40
2022-10-10T01:01:52.928Z,7.40
2022-10-10T01:04:34.126Z,7.50
2022-10-10T01:07:04.257Z,7.40
2022-10-10T01:09:35.092Z,7.40
2022-10-10T01:12:12.730Z,7.40
2022-10-10T01:14:49.057Z,7.40
2022-10-10T01:17:24.417Z,7.40
2022-10-10T01:20:24.876Z,7.40
2022-10-10T01:23:13.887Z,7.40
2022-10-10T01:25:58.817Z,7.40
2022-10-10T01:28:37.512Z,7.40
2022-10-10T01:31:09.948Z,7.40
2022-10-10T01:33:43.452Z,7.30
2022-10-10T01:36:22.479Z,7.40
2022-10-10T01:38:57.257Z,7.30
2022-10-10T01:41:29.801Z,7.20
2022-10-10T01:43:59.894Z,7.20
2022-10-10T01:46:28.280Z,7.20
2022-10-10T01:48:58.718Z,7.30
2022-10-10T01:51:40.001Z,7.40
2022-10-10T01:54:19.889Z,7.40
2022-10-10T01:56:59.375Z,7.40
2022-10-10T01:59:40.327Z,7.30
2022-10-10T02:02:16.378Z,7.10
2022-10-10T02:04:50.696Z,7.10
2022-10-10T02:07:25.034Z,7.00
2022-10-10T02:09:55.353Z,7.00
2022-10-10T02:12:24.756Z,7.00
2022-10-10T02:14:57.433Z,6.90
2022-10-10T02:17:27.183Z,7.00
2022-10-10T02:19:59.578Z,6.90
2022-10-10T02:22:29.667Z,7.00
2022-10-10T02:24:57.892Z,7.00
2022-10-10T02:27:31.378Z,7.00
2022-10-10T02:30:03.937Z,7.00
2022-10-10T02:32:35.711Z,7.00
2022-10-10T02:35:09.737Z,6.90
2022-10-10T02:37:40.099Z,6.90
2022-10-10T02:40:10.499Z,6.80
2022-10-10T02:42:39.743Z,6.80
2022-10-10T02:45:10.134Z,6.70
2022-10-10T02:47:38.230Z,6.80
2022-10-10T02:50:07.493Z,6.70
2022-10-10T02:52:35.484Z,6.70
2022-10-10T02:55:03.506Z,6.70
2022-10-10T02:57:31.924Z,6.80
2022-10-10T03:00:00.251Z,6.70
2022-10-10T03:02:29.915Z,6.70
2022-10-10T03:04:58.242Z,6.60
2022-10-10T03:07:26.742Z,6.60
2022-10-10T03:09:54.842Z,6.60
2022-10-10T03:12:22.886Z,6.70
2022-10-10T03:14:51.353Z,6.60
2022-10-10T03:17:19.455Z,6.70
2022-10-10T03:19:48.850Z,6.70
2022-10-10T03:22:17.412Z,6.70
2022-10-10T03:24:45.469Z,6.70
2022-10-10T03:27:13.433Z,6.70
2022-10-10T03:29:41.763Z,6.50
2022-10-10T03:32:11.174Z,6.50
2022-10-10T03:34:39.388Z,6.50
2022-10-10T03:37:08.840Z,6.40
2022-10-10T03:39:37.297Z,6.60
2022-10-10T03:42:06.309Z,6.60
2022-10-10T03:44:34.377Z,6.50
2022-10-10T03:47:02.408Z,6.40
2022-10-10T03:49:30.918Z,6.20
2022-10-10T03:52:00.547Z,6.40
2022-10-10T03:54:30.339Z,6.40
2022-10-10T03:56:58.419Z,6.40
2022-10-10T03:59:26.557Z,6.50
2022-10-10T04:01:54.656Z,6.60
2022-10-10T04:04:23.023Z,6.50
2022-10-10T04:06:50.993Z,6.40
2022-10-10T04:09:19.001Z,6.30
2022-10-10T04:11:48.403Z,6.30
2022-10-10T04:14:16.395Z,6.20
2022-10-10T04:16:44.421Z,6.20
2022-10-10T04:19:12.699Z,6.20
2022-10-10T04:21:40.963Z,6.30
2022-10-10T04:24:08.966Z,6.10
2022-10-10T04:26:37.201Z,5.90
2022-10-10T04:29:06.609Z,5.60
2022-10-10T04:31:34.600Z,5.80
2022-10-10T04:34:02.718Z,5.80
2022-10-10T04:36:30.817Z,5.90
2022-10-10T04:38:59.536Z,6.00
2022-10-10T04:41:27.545Z,6.00
2022-10-10T04:43:55.510Z,5.90
2022-10-10T04:46:25.512Z,6.00
2022-10-10T04:48:53.512Z,6.00
2022-10-10T04:51:21.625Z,5.90
2022-10-10T04:53:50.658Z,5.90
2022-10-10T04:56:18.805Z,6.00
2022-10-10T04:58:46.828Z,6.10
2022-10-10T05:01:14.856Z,6.30
2022-10-10T05:03:44.402Z,6.20
2022-10-10T05:06:12.985Z,5.90
2022-10-10T05:08:41.223Z,6.00
2022-10-10T05:11:09.283Z,5.90
2022-10-10T05:13:37.282Z,6.10
2022-10-10T05:16:05.441Z,6.30
2022-10-10T05:18:36.789Z,6.40
2022-10-10T05:21:07.046Z,6.00
2022-10-10T05:23:35.247Z,6.00
2022-10-10T05:26:03.299Z,6.10
2022-10-10T05:28:31.349Z,6.20
2022-10-10T05:30:59.664Z,6.40
2022-10-10T05:33:27.669Z,6.30
2022-10-10T05:36:03.274Z,5.90
2022-10-10T05:38:32.689Z,6.20
2022-10-10T05:41:00.766Z,6.30
2022-10-10T05:43:28.886Z,6.20
2022-10-10T05:45:56.989Z,6.30
2022-10-10T05:48:25.198Z,6.30
2022-10-10T05:50:55.814Z,6.50
2022-10-10T05:53:24.743Z,6.50
2022-10-10T05:55:54.550Z,6.60
2022-10-10T05:58:22.646Z,6.40
2022-10-10T06:00:50.753Z,6.60
2022-10-10T06:03:19.233Z,6.90
2022-10-10T06:05:49.487Z,7.00
2022-10-10T06:08:17.510Z,7.10
2022-10-10T06:10:47.405Z,7.40
2022-10-10T06:13:23.821Z,7.50
2022-10-10T06:15:52.997Z,7.50
2022-10-10T06:18:21.277Z,7.40
2022-10-10T06:20:49.278Z,7.80
2022-10-10T06:23:18.230Z,8.40
2022-10-10T06:25:46.431Z,8.60
2022-10-10T06:28:16.058Z,8.90
2022-10-10T06:30:45.247Z,8.90
2022-10-10T06:33:15.180Z,9.20
2022-10-10T06:35:44.198Z,10.90
2022-10-10T06:38:12.716Z,10.20
2022-10-10T06:40:41.317Z,10.20
2022-10-10T06:43:12.072Z,10.20
2022-10-10T06:45:43.526Z,10.40
2022-10-10T06:48:12.717Z,10.10
2022-10-10T06:50:40.916Z,9.90
2022-10-10T06:53:09.031Z,10.30
2022-10-10T06:55:37.121Z,10.20
2022-10-10T06:58:05.169Z,9.80
2022-10-10T07:00:33.205Z,9.90
2022-10-10T07:03:02.597Z,10.60
2022-10-10T07:05:30.828Z,10.70
2022-10-10T07:07:59.230Z,10.90
2022-10-10T07:10:27.198Z,10.70
2022-10-10T07:12:55.600Z,10.50
2022-10-10T07:15:23.964Z,10.60
2022-10-10T07:17:58.892Z,12.20
2022-10-10T07:20:28.718Z,12.50
2022-10-10T07:22:57.017Z,12.60
2022-10-10T07:25:25.889Z,11.80
2022-10-10T07:27:54.013Z,12.00
2022-10-10T07:30:22.115Z,12.40
2022-10-10T07:32:50.480Z,12.80
2022-10-10T07:35:18.751Z,13.80
2022-10-10T07:37:48.226Z,13.80
2022-10-10T07:40:16.415Z,14.20
2022-10-10T07:42:44.466Z,13.60
2022-10-10T07:45:13.487Z,13.40
2022-10-10T07:47:41.805Z,13.50
2022-10-10T07:50:11.996Z,12.80
2022-10-10T07:52:40.285Z,12.80
2022-10-10T07:55:10.708Z,12.70
2022-10-10T07:57:39.025Z,12.60
2022-10-10T08:00:09.266Z,13.00
2022-10-10T08:02:37.308Z,13.80
2022-10-10T08:05:05.770Z,13.90
2022-10-10T08:07:33.935Z,14.00
2022-10-10T08:10:02.572Z,14.10
2022-10-10T08:12:31.931Z,13.70
2022-10-10T08:15:00.834Z,14.10
2022-10-10T08:17:29.071Z,13.90
2022-10-10T08:19:57.406Z,13.60
2022-10-10T08:22:27.895Z,13.80
2022-10-10T08:24:55.927Z,13.80
2022-10-10T08:27:24.201Z,13.70
2022-10-10T08:29:53.707Z,13.60
2022-10-10T08:32:21.762Z,13.50
2022-10-10T08:34:49.838Z,13.60
2022-10-10T08:37:17.811Z,13.50
2022-10-10T08:39:45.881Z,13.50
2022-10-10T08:42:18.063Z,13.50
2022-10-10T08:44:49.318Z,14.10
2022-10-10T08:47:22.289Z,14.40
2022-10-10T08:49:53.721Z,14.30
2022-10-10T08:52:30.653Z,14.40
2022-10-10T08:55:01.588Z,14.40
2022-10-10T08:57:33.663Z,14.40
2022-10-10T09:00:06.194Z,14.40
2022-10-10T09:02:55.201Z,15.20
2022-10-10T09:05:42.898Z,16.10
2022-10-10T09:08:34.807Z,16.50
2022-10-10T09:11:08.538Z,16.30
2022-10-10T09:13:40.619Z,16.10
2022-10-10T09:16:22.356Z,16.20
2022-10-10T09:19:02.810Z,16.30
2022-10-10T09:21:34.054Z,16.40
2022-10-10T09:24:07.059Z,16.50
2022-10-10T09:26:39.716Z,17.50
2022-10-10T09:29:19.381Z,18.40
2022-10-10T09:31:51.469Z,18.80
2022-10-10T09:34:28.939Z,18.20
2022-10-10T09:37:00.369Z,17.80
2022-10-10T09:39:36.790Z,18.10
2022-10-10T09:42:06.647Z,17.80
2022-10-10T09:44:34.644Z,17.90
2022-10-10T09:47:02.871Z,18.70
2022-10-10T09:49:32.678Z,19.30
2022-10-10T09:52:08.460Z,18.60
2022-10-10T09:54:36.504Z,18.50
2022-10-10T09:57:04.848Z,18.80
2022-10-10T09:59:41.329Z,18.70
2022-10-10T10:02:18.553Z,18.80
2022-10-10T10:04:48.498Z,18.90
2022-10-10T10:07:22.917Z,19.00
2022-10-10T10:09:52.894Z,18.60
2022-10-10T10:12:24.554Z,18.70
2022-10-10T10:14:59.609Z,19.00
2022-10-10T10:17:27.723Z,19.00
2022-10-10T10:19:57.085Z,19.50
2022-10-10T10:22:35.157Z,19.60
2022-10-10T10:25:31.771Z,19.10
2022-10-10T10:28:22.281Z,18.70
2022-10-10T10:30:53.336Z,18.70
2022-10-10T10:33:34.386Z,19.40
2022-10-10T10:36:14.019Z,19.80
2022-10-10T10:38:45.745Z,20.20
2022-10-10T10:41:24.533Z,20.40
2022-10-10T10:44:25.649Z,20.20
2022-10-10T10:47:05.826Z,19.90
2022-10-10T10:49:43.813Z,20.10
2022-10-10T10:52:31.740Z,19.60
2022-10-10T10:55:20.008Z,20.30
2022-10-10T11:01:28.713Z,20.60
2022-10-10T11:05:20.168Z,21.10
2022-10-10T11:07:20.323Z,20.90
2022-10-10T11:09:56.642Z,20.70
2022-10-10T11:12:46.388Z,20.80
2022-10-10T11:15:19.045Z,21.10
2022-10-10T11:17:53.613Z,20.10
2022-10-10T11:20:27.792Z,20.00
2022-10-10T11:23:07.961Z,20.50
2022-10-10T11:25:45.864Z,21.00
2022-10-10T11:28:18.225Z,21.10
2022-10-10T11:30:49.995Z,20.70
2022-10-10T11:33:22.268Z,20.50
2022-10-10T11:35:57.005Z,20.30
2022-10-10T11:38:30.255Z,20.90
2022-10-10T11:41:04.748Z,20.80
2022-10-10T11:43:41.108Z,20.30
2022-10-10T11:46:22.686Z,20.90
2022-10-10T11:48:58.099Z,21.00
2022-10-10T11:51:36.968Z,21.10
2022-10-10T11:54:13.115Z,20.90
2022-10-10T11:56:46.051Z,19.20
2022-10-10T11:59:21.820Z,19.90
2022-10-10T12:01:53.727Z,20.70
2022-10-10T12:04:22.783Z,21.20
2022-10-10T12:06:55.731Z,21.30
2022-10-10T12:09:27.275Z,21.00
2022-10-10T12:12:00.600Z,21.00
2022-10-10T12:14:31.840Z,21.20
2022-10-10T12:17:00.714Z,20.70
2022-10-10T12:19:30.401Z,21.20
2022-10-10T12:22:01.417Z,21.20
2022-10-10T12:24:32.789Z,21.40
2022-10-10T12:27:30.786Z,21.20
2022-10-10T12:30:28.465Z,21.30
2022-10-10T12:32:56.881Z,21.50
2022-10-10T12:35:41.971Z,21.30
2022-10-10T12:38:19.573Z,20.90
2022-10-10T12:41:15.250Z,20.80
2022-10-10T12:43:52.716Z,21.00
2022-10-10T12:46:30.313Z,21.30
2022-10-10T12:49:03.847Z,21.70
2022-10-10T12:51:36.077Z,21.70
2022-10-10T12:54:06.972Z,21.40
2022-10-10T12:56:39.130Z,21.30
2022-10-10T12:59:19.336Z,21.30
2022-10-10T13:01:52.188Z,21.20
2022-10-10T13:04:21.844Z,21.30
2022-10-10T13:06:53.761Z,21.30
2022-10-10T13:09:24.691Z,21.40
2022-10-10T13:11:54.697Z,21.30
2022-10-10T13:14:24.959Z,21.50
2022-10-10T13:16:53.026Z,21.40
2022-10-10T13:19:23.063Z,21.20
2022-10-10T13:21:53.049Z,20.90
2022-10-10T13:24:25.569Z,20.90
2022-10-10T13:26:57.115Z,21.20
2022-10-10T13:29:30.927Z,21.30
2022-10-10T13:32:01.691Z,21.40
2022-10-10T13:34:32.926Z,21.00
2022-10-10T13:37:03.387Z,20.80
2022-10-10T13:39:35.784Z,21.10
2022-10-10T13:42:05.777Z,20.90
2022-10-10T13:44:49.668Z,21.30
2022-10-10T13:47:45.101Z,21.60
2022-10-10T13:50:21.449Z,21.40
2022-10-10T13:52:49.848Z,21.20
2022-10-10T13:55:26.852Z,21.20
2022-10-10T13:58:00.817Z,20.80
2022-10-10T14:00:33.394Z,20.80
2022-10-10T14:03:01.948Z,20.60
2022-10-10T14:05:32.867Z,20.20
2022-10-10T14:08:01.259Z,20.70
2022-10-10T14:10:33.716Z,21.00
2022-10-10T14:13:02.289Z,21.00
2022-10-10T14:15:44.434Z,20.60
2022-10-10T14:18:16.934Z,20.60
2022-10-10T14:20:45.426Z,20.50
2022-10-10T14:23:14.415Z,20.40
2022-10-10T14:25:44.440Z,20.50
2022-10-10T14:28:17.099Z,20.80
2022-10-10T14:30:47.131Z,20.90
2022-10-10T14:33:18.526Z,21.00
2022-10-10T14:35:47.933Z,20.50
2022-10-10T14:38:16.529Z,20.70
2022-10-10T14:40:46.182Z,20.40
2022-10-10T14:43:14.821Z,20.60
2022-10-10T14:45:42.795Z,20.30
2022-10-10T14:48:13.474Z,20.20
2022-10-10T14:50:44.467Z,19.90
2022-10-10T14:53:13.595Z,19.80
2022-10-10T14:55:43.495Z,19.60
2022-10-10T14:58:16.946Z,19.70
2022-10-10T15:00:45.534Z,19.50
2022-10-10T15:03:15.382Z,19.30
2022-10-10T15:05:43.963Z,19.20
2022-10-10T15:08:14.404Z,19.10
2022-10-10T15:10:42.489Z,19.10
2022-10-10T15:13:11.648Z,18.90
2022-10-10T15:15:39.886Z,19.00
2022-10-10T15:18:26.741Z,18.90
2022-10-10T15:20:58.363Z,18.80
2022-10-10T15:23:27.259Z,18.90
2022-10-10T15:26:00.673Z,18.90
2022-10-10T15:28:28.711Z,18.90
2022-10-10T15:30:56.766Z,18.60
2022-10-10T15:33:24.955Z,18.70
2022-10-10T15:36:09.091Z,19.00
2022-10-10T15:38:38.600Z,18.90
2022-10-10T15:41:08.992Z,18.70
2022-10-10T15:43:44.362Z,18.80
2022-10-10T15:46:12.421Z,18.80
2022-10-10T15:48:40.513Z,18.70
2022-10-10T15:51:10.604Z,18.80
2022-10-10T15:53:38.681Z,18.90
2022-10-10T15:56:10.294Z,18.80
2022-10-10T15:58:39.179Z,18.60
2022-10-10T16:01:11.749Z,18.50
2022-10-10T16:03:39.873Z,18.40
2022-10-10T16:06:10.127Z,18.50
2022-10-10T16:08:39.373Z,18.40
2022-10-10T16:11:08.504Z,18.30
2022-10-10T16:13:37.223Z,18.10
2022-10-10T16:16:07.923Z,18.20
2022-10-10T16:18:40.388Z,18.30
2022-10-10T16:21:12.632Z,18.20
2022-10-10T16:23:40.815Z,18.10
2022-10-10T16:26:12.230Z,18.20
2022-10-10T16:28:40.976Z,17.90
2022-10-10T16:31:11.394Z,17.90
2022-10-10T16:33:40.992Z,18.10
2022-10-10T16:36:12.505Z,18.10
2022-10-10T16:38:41.243Z,18.10
2022-10-10T16:41:28.847Z,18.10
2022-10-10T16:44:00.858Z,18.10
2022-10-10T16:46:29.374Z,18.00
2022-10-10T16:48:59.285Z,17.90
2022-10-10T16:51:30.392Z,17.90
2022-10-10T16:54:02.010Z,17.80
2022-10-10T16:56:31.000Z,17.80
2022-10-10T16:59:01.143Z,17.80
2022-10-10T17:01:30.067Z,17.60
2022-10-10T17:04:00.509Z,17.50
2022-10-10T17:06:35.385Z,17.50
2022-10-10T17:09:05.786Z,17.50
2022-10-10T17:11:34.603Z,17.40
2022-10-10T17:14:02.801Z,17.40
2022-10-10T17:17:06.935Z,17.50
2022-10-10T17:19:19.759Z,17.40
2022-10-10T17:21:49.324Z,17.30
2022-10-10T17:24:17.442Z,17.30
2022-10-10T17:26:45.580Z,17.40
2022-10-10T17:29:14.078Z,17.40
2022-10-10T17:31:42.161Z,17.30
2022-10-10T17:34:10.247Z,17.30
2022-10-10T17:36:38.275Z,17.30
2022-10-10T17:39:08.778Z,17.20
2022-10-10T17:41:36.918Z,17.10
2022-10-10T17:44:05.791Z,17.20
2022-10-10T17:46:36.932Z,17.20
2022-10-10T17:49:06.215Z,17.10
2022-10-10T17:51:34.927Z,17.10
2022-10-10T17:54:04.415Z,16.90
2022-10-10T17:56:34.305Z,16.90
2022-10-10T17:59:02.507Z,16.80
2022-10-10T18:01:31.384Z,16.80
2022-10-10T18:04:00.028Z,16.50
2022-10-10T18:06:29.161Z,16.50
2022-10-10T18:08:57.580Z,16.40
2022-10-10T18:11:28.195Z,16.30
2022-10-10T18:14:00.706Z,16.10
2022-10-10T18:16:32.568Z,16.10
2022-10-10T18:19:00.999Z,16.10
2022-10-10T18:21:29.203Z,16.00
2022-10-10T18:23:57.666Z,15.70
2022-10-10T18:26:29.614Z,15.60
2022-10-10T18:28:59.237Z,15.60
2022-10-10T18:31:28.658Z,15.70
2022-10-10T18:33:57.268Z,15.60
2022-10-10T18:36:27.597Z,15.30
2022-10-10T18:38:55.750Z,15.40
2022-10-10T18:41:28.057Z,15.30
2022-10-10T18:43:58.710Z,15.30
2022-10-10T18:46:26.958Z,15.20
2022-10-10T18:48:55.271Z,15.20
2022-10-10T18:51:25.226Z,15.20
2022-10-10T18:53:56.411Z,15.30
2022-10-10T18:56:25.361Z,15.10
2022-10-10T18:58:56.194Z,14.90
2022-10-10T19:01:27.240Z,15.00
2022-10-10T19:03:56.732Z,15.20
2022-10-10T19:06:26.656Z,15.20
2022-10-10T19:08:56.674Z,15.20
2022-10-10T19:11:27.706Z,15.20
2022-10-10T19:13:56.863Z,15.10
2022-10-10T19:16:26.523Z,15.10
2022-10-10T19:18:58.213Z,14.80
2022-10-10T19:21:27.264Z,14.90
2022-10-10T19:23:55.841Z,14.80
2022-10-10T19:26:23.945Z,14.60
2022-10-10T19:28:52.362Z,14.60
2022-10-10T19:31:22.772Z,14.50
2022-10-10T19:33:53.720Z,14.50
2022-10-10T19:36:21.988Z,14.60
2022-10-10T19:38:50.334Z,14.60
2022-10-10T19:41:19.192Z,14.60
2022-10-10T19:43:50.226Z,14.70
2022-10-10T19:46:21.958Z,14.60
2022-10-10T19:48:50.394Z,14.60
2022-10-10T19:51:20.405Z,14.60
2022-10-10T19:53:48.491Z,14.50
2022-10-10T19:56:20.682Z,14.40
2022-10-10T19:58:49.007Z,14.50
2022-10-10T20:01:19.135Z,14.40
2022-10-10T20:03:48.250Z,14.40
2022-10-10T20:06:17.716Z,14.30
2022-10-10T20:08:47.995Z,14.30
2022-10-10T20:11:17.430Z,14.30
2022-10-10T20:13:45.467Z,14.40
2022-10-10T20:16:14.052Z,14.30
2022-10-10T20:18:43.551Z,14.30
2022-10-10T20:21:17.038Z,14.20
2022-10-10T20:23:47.821Z,14.30
2022-10-10T20:26:18.628Z,14.20
2022-10-10T20:28:48.237Z,14.20
2022-10-10T20:31:18.774Z,14.10
2022-10-10T20:33:47.039Z,14.00
2022-10-10T20:36:15.870Z,13.90
2022-10-10T20:38:44.354Z,13.90
2022-10-10T20:41:13.738Z,13.80
2022-10-10T20:43:42.032Z,13.80
2022-10-10T20:46:11.418Z,13.80
2022-10-10T20:48:39.786Z,13.80
2022-10-10T20:51:10.641Z,13.80
2022-10-10T20:53:39.727Z,13.80
2022-10-10T20:56:10.383Z,13.70
2022-10-10T20:58:41.245Z,13.80
2022-10-10T21:01:11.166Z,13.80
2022-10-10T21:03:40.160Z,13.60
2022-10-10T21:06:10.502Z,13.60
2022-10-10T21:08:39.283Z,13.60
2022-10-10T21:11:09.333Z,13.60
2022-10-10T21:13:40.508Z,13.70
2022-10-10T21:16:10.602Z,13.40
2022-10-10T21:18:39.061Z,13.40
2022-10-10T21:21:08.666Z,13.20
2022-10-10T21:23:38.615Z,13.20
2022-10-10T21:26:07.812Z,13.30
2022-10-10T21:28:36.524Z,13.10
2022-10-10T21:31:07.355Z,12.90
2022-10-10T21:33:36.032Z,12.70
2022-10-10T21:36:04.536Z,12.80
2022-10-10T21:38:32.665Z,12.80
2022-10-10T21:41:06.642Z,12.70
2022-10-10T21:43:35.796Z,12.80
2022-10-10T21:46:07.178Z,12.60
2022-10-10T21:48:36.500Z,12.50
2022-10-10T21:51:05.103Z,12.60
2022-10-10T21:53:33.685Z,12.60
2022-10-10T21:56:06.294Z,12.50
2022-10-10T21:58:35.902Z,12.50
2022-10-10T22:01:10.783Z,12.50
2022-10-10T22:03:39.342Z,12.20
2022-10-10T22:06:10.056Z,12.20
2022-10-10T22:08:39.436Z,12.10
2022-10-10T22:11:10.544Z,12.30
2022-10-10T22:13:38.929Z,12.20
2022-10-10T22:16:09.537Z,12.30
2022-10-10T22:18:38.134Z,12.30
2022-10-10T22:21:07.676Z,12.20
2022-10-10T22:23:35.689Z,12.20
2022-10-10T22:26:07.709Z,12.20
2022-10-10T22:28:36.248Z,12.20
2022-10-10T22:31:05.484Z,12.30
2022-10-10T22:33:34.857Z,12.30
2022-10-10T22:36:05.292Z,12.20
2022-10-10T22:38:33.955Z,12.20
2022-10-10T22:41:02.189Z,12.00
2022-10-10T22:43:30.631Z,12.00
2022-10-10T22:45:58.618Z,11.90
2022-10-10T22:48:27.481Z,11.80
2022-10-10T22:51:05.450Z,11.70
2022-10-10T22:53:33.532Z,11.70
2022-10-10T22:56:02.399Z,11.70
2022-10-10T22:58:31.831Z,11.70
2022-10-10T23:01:04.972Z,11.70
2022-10-10T23:03:33.591Z,11.70
2022-10-10T23:06:03.524Z,11.60
2022-10-10T23:08:32.390Z,11.50
2022-10-10T23:11:00.472Z,11.50
2022-10-10T23:13:29.033Z,11.50
2022-10-10T23:15:57.450Z,11.60
2022-10-10T23:18:25.504Z,11.50
2022-10-10T23:20:53.523Z,11.50
2022-10-10T23:23:23.271Z,11.30
2022-10-10T23:25:51.583Z,11.20
2022-10-10T23:28:20.009Z,11.30
2022-10-10T23:30:49.640Z,11.20
2022-10-10T23:33:18.591Z,11.10
2022-10-10T23:35:56.703Z,11.10
2022-10-10T23:38:26.173Z,11.20
2022-10-10T23:40:54.296Z,11.20
2022-10-10T23:43:22.731Z,11.10
2022-10-10T23:45:51.239Z,11.00
2022-10-10T23:48:19.948Z,11.00
2022-10-10T23:50:48.057Z,10.90
2022-10-10T23:53:16.069Z,10.80
2022-10-10T23:55:45.579Z,10.80
2022-10-10T23:58:14.095Z,10.80
